Time;durP1;ratioP1;P1;durP2;ratioP2;P2;SDS_P1;SDS_P2;PMS_P1;PMS_P2;Temp;Humidity;BMP_temperature;BMP_pressure;BME280_temperature;BME280_humidity;BME280_pressure;Samples;Min_cycle;Max_cycle;Signal;HPM_P1;HPM_P2
2022/06/06 00:02:20;;;;;;;4.47;3.10;;;15.80;99.90;;;;;;5056104;28;20127;-74
2022/06/06 00:04:46;;;;;;;4.63;2.92;;;15.80;99.90;;;;;;5056122;28;20033;-75
2022/06/06 00:07:11;;;;;;;5.68;3.20;;;15.80;99.90;;;;;;5072842;28;20040;-74
2022/06/06 00:09:37;;;;;;;5.82;3.25;;;15.80;99.90;;;;;;5056109;28;20045;-75
2022/06/06 00:12:05;;;;;;;7.72;4.13;;;15.80;99.90;;;;;;5072761;28;20083;-74
2022/06/06 00:14:31;;;;;;;4.88;3.60;;;15.70;99.90;;;;;;5056318;28;20072;-74
2022/06/06 00:16:57;;;;;;;6.88;3.97;;;15.70;99.90;;;;;;5056149;28;20044;-74
2022/06/06 00:19:24;;;;;;;4.63;3.55;;;15.70;99.90;;;;;;5055913;28;20046;-74
2022/06/06 00:21:50;;;;;;;4.50;3.05;;;15.60;99.90;;;;;;5072427;28;20051;-74
2022/06/06 00:24:17;;;;;;;5.38;3.35;;;15.60;99.90;;;;;;5106320;28;20116;-74
2022/06/06 00:26:43;;;;;;;7.18;3.55;;;15.50;99.90;;;;;;5072484;28;20041;-74
2022/06/06 00:29:12;;;;;;;5.68;3.35;;;15.50;99.90;;;;;;5056049;28;20049;-74
2022/06/06 00:37:12;;;;;;;4.60;2.83;;;15.40;99.90;;;;;;5072174;28;20182;-74
2022/06/06 00:39:38;;;;;;;5.50;2.93;;;15.40;99.90;;;;;;5072207;28;20123;-73
2022/06/06 00:42:17;;;;;;;3.63;2.67;;;15.30;99.90;;;;;;5055481;28;20832;-73
2022/06/06 00:44:43;;;;;;;3.67;2.58;;;15.30;99.90;;;;;;5072341;28;20080;-73
2022/06/06 00:47:24;;;;;;;5.47;2.55;;;15.20;99.90;;;;;;5072243;28;20071;-72
2022/06/06 00:49:59;;;;;;;4.53;2.75;;;15.20;99.90;;;;;;5071290;28;20044;-73
2022/06/06 00:52:32;;;;;;;4.20;2.42;;;15.20;99.90;;;;;;5072059;28;20128;-73
2022/06/06 00:55:12;;;;;;;5.22;2.40;;;15.20;99.90;;;;;;5071864;28;20412;-73
2022/06/06 00:57:45;;;;;;;3.72;2.30;;;15.20;99.90;;;;;;5072177;28;20044;-73
2022/06/06 01:00:14;;;;;;;8.38;2.33;;;15.20;99.90;;;;;;5072115;28;20045;-72
2022/06/06 01:02:42;;;;;;;4.00;2.67;;;15.20;99.90;;;;;;5071863;28;20086;-73
2022/06/06 01:05:09;;;;;;;3.95;2.40;;;15.10;99.90;;;;;;5105677;28;20075;-73
2022/06/06 01:07:36;;;;;;;5.78;2.67;;;15.10;99.90;;;;;;5071767;28;20067;-73
2022/06/06 01:10:01;;;;;;;3.83;2.25;;;15.10;99.90;;;;;;5038429;28;20074;-72
2022/06/06 01:12:31;;;;;;;4.13;2.60;;;15.10;99.90;;;;;;5071746;28;20500;-72
2022/06/06 01:15:01;;;;;;;2.90;2.05;;;15.10;99.90;;;;;;5071898;28;20041;-72
2022/06/06 01:18:08;;;;;;;2.95;1.98;;;15.10;99.90;;;;;;5071965;28;20049;-73
2022/06/06 01:21:06;;;;;;;4.05;2.03;;;15.00;99.90;;;;;;5049613;28;20608;-73
2022/06/06 01:24:06;;;;;;;2.50;1.40;;;15.00;99.90;;;;;;5054879;28;20173;-73
2022/06/06 01:26:34;;;;;;;2.33;1.42;;;15.00;99.90;;;;;;5071576;28;20049;-73
2022/06/06 01:29:10;;;;;;;2.08;1.52;;;15.00;99.90;;;;;;5071586;28;20047;-72
2022/06/06 01:31:50;;;;;;;1.90;1.40;;;15.00;99.90;;;;;;5071341;28;20040;-73
2022/06/06 01:34:25;;;;;;;3.20;1.70;;;15.00;99.90;;;;;;5071475;28;20045;-72
2022/06/06 01:36:53;;;;;;;2.20;1.35;;;15.00;99.90;;;;;;5071439;28;20036;-73
2022/06/06 01:39:21;;;;;;;2.30;1.48;;;15.00;99.90;;;;;;5054747;28;20068;-73
2022/06/06 01:42:08;;;;;;;3.20;1.80;;;14.90;99.90;;;;;;5071862;28;20140;-73
2022/06/06 01:44:54;;;;;;;2.50;1.08;;;14.90;99.90;;;;;;5071395;28;20053;-72
2022/06/06 01:47:34;;;;;;;2.08;1.33;;;14.90;99.90;;;;;;5071617;28;20060;-72
2022/06/06 01:50:01;;;;;;;2.38;1.88;;;14.80;99.90;;;;;;5071722;28;20062;-73
2022/06/06 01:52:27;;;;;;;1.65;1.20;;;14.80;99.90;;;;;;5071357;28;20048;-73
2022/06/06 01:54:56;;;;;;;1.85;1.20;;;14.70;99.90;;;;;;5071536;28;20040;-73
2022/06/06 01:57:23;;;;;;;2.08;1.50;;;14.80;99.90;;;;;;5071378;28;20052;-73
2022/06/06 01:59:51;;;;;;;2.78;1.80;;;14.80;99.90;;;;;;5071818;28;20080;-73
2022/06/06 02:02:16;;;;;;;3.80;1.75;;;14.80;99.90;;;;;;5074319;28;20127;-73
2022/06/06 02:04:42;;;;;;;2.33;1.70;;;14.70;99.90;;;;;;5075794;28;20079;-73
2022/06/06 02:07:08;;;;;;;2.38;1.50;;;14.70;99.90;;;;;;5059085;28;20484;-73
2022/06/06 02:09:33;;;;;;;2.97;1.55;;;14.70;99.90;;;;;;5058928;28;20032;-73
2022/06/06 02:12:01;;;;;;;3.13;1.85;;;14.70;99.90;;;;;;5059026;28;20040;-73
2022/06/06 02:14:27;;;;;;;3.15;1.77;;;14.70;99.90;;;;;;5075720;28;20044;-73
2022/06/06 02:16:53;;;;;;;2.88;1.88;;;14.70;99.90;;;;;;5075322;28;20502;-73
2022/06/06 02:19:18;;;;;;;2.92;1.98;;;14.60;99.90;;;;;;5074998;28;20041;-73
2022/06/06 02:21:45;;;;;;;2.80;1.92;;;14.70;99.90;;;;;;5075081;28;20043;-73
2022/06/06 02:24:11;;;;;;;3.10;2.10;;;14.70;99.90;;;;;;5075177;28;20537;-73
2022/06/06 02:26:36;;;;;;;5.07;1.85;;;14.60;99.90;;;;;;5075073;28;20057;-73
2022/06/06 02:29:02;;;;;;;5.78;2.92;;;14.60;99.90;;;;;;5074806;28;20052;-72
2022/06/06 02:31:29;;;;;;;5.15;2.13;;;14.60;99.90;;;;;;5058080;28;20134;-73
2022/06/06 02:33:55;;;;;;;3.70;2.30;;;14.60;99.90;;;;;;5074706;28;20127;-73
2022/06/06 02:36:20;;;;;;;4.45;2.45;;;14.60;99.90;;;;;;5074553;28;20512;-73
2022/06/06 02:38:46;;;;;;;4.13;2.55;;;14.50;99.90;;;;;;5075245;28;20044;-73
2022/06/06 02:41:12;;;;;;;4.63;2.63;;;14.50;99.90;;;;;;5058123;28;20129;-73
2022/06/06 02:43:41;;;;;;;5.10;2.90;;;14.50;99.90;;;;;;5074557;28;20041;-73
2022/06/06 02:46:07;;;;;;;3.88;2.58;;;14.50;99.90;;;;;;5074683;28;20045;-73
2022/06/06 02:48:33;;;;;;;5.10;2.63;;;14.50;99.90;;;;;;5074757;28;20083;-73
2022/06/06 02:51:00;;;;;;;6.20;2.53;;;14.50;99.90;;;;;;5057785;28;20032;-73
2022/06/06 02:53:26;;;;;;;4.13;2.50;;;14.50;99.90;;;;;;5074514;28;20044;-73
2022/06/06 02:55:53;;;;;;;4.90;2.78;;;14.50;99.90;;;;;;5074363;28;20131;-73
2022/06/06 02:58:24;;;;;;;4.28;2.33;;;14.50;99.90;;;;;;5057783;28;20048;-73
2022/06/06 03:01:01;;;;;;;3.50;2.28;;;14.50;99.90;;;;;;5074310;28;20123;-73
2022/06/06 03:03:28;;;;;;;3.45;2.15;;;14.50;99.90;;;;;;5074237;28;20040;-73
2022/06/06 03:06:07;;;;;;;4.45;2.45;;;14.50;99.90;;;;;;5074305;28;20574;-73
2022/06/06 03:08:41;;;;;;;4.07;2.13;;;14.50;99.90;;;;;;5057426;28;20036;-73
2022/06/06 03:11:18;;;;;;;3.05;2.28;;;14.50;99.90;;;;;;5074118;28;20067;-72
2022/06/06 03:13:49;;;;;;;2.45;1.85;;;14.50;99.90;;;;;;5073186;28;20184;-73
2022/06/06 03:22:45;;;;;;;3.72;1.90;;;14.50;99.90;;;;;;5073707;28;20411;-73
2022/06/06 03:25:32;;;;;;;3.05;1.50;;;14.50;99.90;;;;;;5073669;28;20101;-73
2022/06/06 03:28:05;;;;;;;1.58;1.15;;;14.50;99.90;;;;;;5074007;28;20052;-73
2022/06/06 03:30:57;;;;;;;1.88;1.17;;;14.50;99.90;;;;;;5073652;28;20044;-73
2022/06/06 03:33:35;;;;;;;2.50;1.50;;;14.50;99.90;;;;;;5073590;28;20040;-72
2022/06/06 03:36:25;;;;;;;4.43;1.95;;;14.50;99.90;;;;;;5073505;28;20400;-73
2022/06/06 03:39:09;;;;;;;3.67;2.00;;;14.50;99.90;;;;;;5074038;28;20047;-72
2022/06/06 03:41:44;;;;;;;3.10;1.63;;;14.50;99.90;;;;;;5073478;28;20103;-73
2022/06/06 03:44:31;;;;;;;3.92;2.17;;;14.40;99.90;;;;;;5073341;28;20119;-73
2022/06/06 03:47:18;;;;;;;5.70;2.83;;;14.40;99.90;;;;;;5073303;28;20348;-73
2022/06/06 03:49:56;;;;;;;4.15;2.05;;;14.40;99.90;;;;;;5056606;28;20032;-73
2022/06/06 03:52:27;;;;;;;5.20;2.95;;;14.40;99.90;;;;;;5073543;28;20045;-73
2022/06/06 03:55:22;;;;;;;;;;;14.30;99.90;;;;;;5073817;28;20376;-73
2022/06/06 03:57:49;;;;;;;6.00;2.55;;;14.30;99.90;;;;;;5004294;28;19924;-73
2022/06/06 04:00:15;;;;;;;8.98;3.70;;;14.30;99.90;;;;;;5073033;28;20083;-73
2022/06/06 04:02:44;;;;;;;6.22;3.08;;;14.30;99.90;;;;;;5056253;28;20460;-73
2022/06/06 04:05:14;;;;;;;5.47;2.45;;;14.30;99.90;;;;;;5072950;28;20050;-73
2022/06/06 04:07:39;;;;;;;6.72;2.50;;;14.30;99.90;;;;;;5056252;28;20032;-72
2022/06/06 04:10:07;;;;;;;6.88;3.30;;;14.30;99.90;;;;;;5056153;28;20040;-72
2022/06/06 04:12:51;;;;;;;8.10;2.97;;;14.20;99.90;;;;;;5073120;28;20507;-72
2022/06/06 04:15:42;;;;;;;4.22;3.13;;;14.20;99.90;;;;;;5056041;28;20181;-72
2022/06/06 04:18:22;;;;;;;;;;;14.10;99.90;;;;;;5073101;28;20082;-72
2022/06/06 04:21:14;;;;;;;;;;;14.20;99.90;;;;;;5072982;28;19927;-73
2022/06/06 04:23:51;;;;;;;;;;;14.10;99.90;;;;;;5069599;28;20368;-72
2022/06/06 04:26:27;;;;;;;;;;;14.10;99.90;;;;;;5055502;28;20341;-73
2022/06/06 04:28:58;;;;;;;;;;;14.10;99.90;;;;;;5056253;28;20007;-72
2022/06/06 04:31:42;;;;;;;;;;;14.10;99.90;;;;;;5072868;28;20355;-73
2022/06/06 04:34:20;;;;;;;;;;;14.00;99.90;;;;;;5073112;28;19916;-72
2022/06/06 04:36:58;;;;;;;;;;;14.00;99.90;;;;;;5056089;28;19920;-72
2022/06/06 04:39:24;;;;;;;;;;;14.00;99.90;;;;;;5072971;28;20283;-73
2022/06/06 04:41:52;;;;;;;;;;;14.00;99.90;;;;;;5072808;28;19916;-73
2022/06/06 04:44:33;;;;;;;;;;;14.00;99.90;;;;;;5073046;28;19916;-73
2022/06/06 04:47:07;;;;;;;;;;;14.00;99.90;;;;;;5072872;28;20007;-73
2022/06/06 04:49:33;;;;;;;;;;;14.00;99.90;;;;;;5072844;28;19959;-72
2022/06/06 04:51:59;;;;;;;;;;;13.90;99.90;;;;;;5072464;28;19916;-73
2022/06/06 04:54:25;;;;;;;;;;;13.90;99.90;;;;;;5072483;28;19922;-72
2022/06/06 04:56:52;;;;;;;;;;;13.90;99.90;;;;;;5072716;28;19927;-72
2022/06/06 04:59:18;;;;;;;;;;;13.90;99.90;;;;;;5055780;28;19916;-72
2022/06/06 05:01:44;;;;;;;;;;;13.90;99.90;;;;;;5072515;28;20287;-72
2022/06/06 05:04:09;;;;;;;;;;;13.90;99.90;;;;;;5072361;28;19916;-72
2022/06/06 05:06:58;;;;;;;;;;;14.00;99.90;;;;;;5055679;28;19922;-72
2022/06/06 05:09:27;;;;;;;;;;;13.80;99.90;;;;;;5064220;28;19981;-72
2022/06/06 05:12:13;;;;;;;;;;;13.80;99.90;;;;;;5072437;28;19923;-72
2022/06/06 05:14:58;;;;;;;;;;;13.80;99.90;;;;;;5055852;28;19916;-73
2022/06/06 05:17:26;;;;;;;;;;;13.80;99.90;;;;;;5072533;28;19917;-72
2022/06/06 05:20:08;;;;;;;;;;;13.80;99.90;;;;;;5072191;28;19932;-73
2022/06/06 05:22:36;;;;;;;;;;;13.90;99.90;;;;;;5072082;28;20003;-72
2022/06/06 05:25:08;;;;;;;;;;;13.80;99.90;;;;;;5072020;28;19967;-72
2022/06/06 05:27:40;;;;;;;;;;;13.80;99.90;;;;;;5072029;28;19917;-72
2022/06/06 05:30:31;;;;;;;;;;;13.90;99.90;;;;;;5055656;28;19916;-72
2022/06/06 05:32:59;;;;;;;;;;;13.90;99.90;;;;;;5072030;28;19968;-72
2022/06/06 05:35:25;;;;;;;;;;;13.80;99.90;;;;;;5071823;28;19924;-72
2022/06/06 05:38:15;;;;;;;;;;;13.80;99.90;;;;;;5072303;28;20287;-72
2022/06/06 05:41:04;;;;;;;;;;;13.80;99.90;;;;;;5072344;28;19990;-72
2022/06/06 05:43:33;;;;;;;;;;;13.80;99.90;;;;;;5027779;28;20461;-72
2022/06/06 05:46:14;;;;;;;;;;;13.90;99.90;;;;;;5072531;28;19916;-72
2022/06/06 05:49:15;;;;;;;;;;;13.80;99.90;;;;;;5071931;28;19916;-72
2022/06/06 05:51:59;;;;;;;;;;;13.80;99.90;;;;;;5014715;28;20411;-72
2022/06/06 05:54:37;;;;;;;;;;;13.80;99.90;;;;;;5066941;28;19917;-72
2022/06/06 05:57:21;;;;;;;;;;;13.80;99.90;;;;;;5071777;28;20342;-72
2022/06/06 05:59:49;;;;;;;;;;;13.80;99.90;;;;;;5071661;28;20292;-72
2022/06/06 06:02:39;;;;;;;;;;;13.80;99.90;;;;;;5071755;28;20295;-72
2022/06/06 06:05:04;;;;;;;;;;;13.80;99.90;;;;;;5063755;28;19923;-73
2022/06/06 06:07:44;;;;;;;;;;;13.80;99.90;;;;;;5071702;28;19924;-73
2022/06/06 06:10:14;;;;;;;;;;;13.80;99.90;;;;;;5054893;28;19916;-73
2022/06/06 06:12:49;;;;;;;;;;;13.90;99.90;;;;;;5071716;28;20348;-73
2022/06/06 06:15:33;;;;;;;;;;;13.90;99.90;;;;;;5071622;28;19917;-73
2022/06/06 06:18:01;;;;;;;;;;;13.90;99.90;;;;;;5071511;28;19920;-73
2022/06/06 06:20:30;;;;;;;;;;;13.90;99.90;;;;;;5071585;28;19939;-73
2022/06/06 06:23:01;;;;;;;;;;;14.00;99.90;;;;;;5071518;28;20015;-73
2022/06/06 06:25:27;;;;;;;;;;;14.00;99.90;;;;;;5071460;28;19920;-73
2022/06/06 06:27:56;;;;;;;;;;;14.10;99.90;;;;;;5071584;28;19943;-72
2022/06/06 06:30:21;;;;;;;;;;;14.10;99.90;;;;;;5071862;28;20385;-72
2022/06/06 06:33:02;;;;;;;;;;;14.10;99.90;;;;;;5071361;28;19916;-72
2022/06/06 06:35:28;;;;;;;;;;;14.10;99.90;;;;;;5071384;28;19924;-73
2022/06/06 06:37:59;;;;;;;;;;;14.10;99.90;;;;;;5054784;28;20307;-74
2022/06/06 06:40:48;;;;;;;;;;;14.10;99.90;;;;;;5071546;28;19981;-73
2022/06/06 06:43:13;;;;;;;;;;;14.00;99.90;;;;;;5071636;28;19967;-73
2022/06/06 06:45:39;;;;;;;;;;;14.00;99.90;;;;;;5071416;28;19917;-74
2022/06/06 06:48:10;;;;;;;;;;;14.10;99.90;;;;;;5072117;28;20330;-73
2022/06/06 06:50:36;;;;;;;;;;;14.00;99.90;;;;;;5074982;28;20003;-73
2022/06/06 06:53:09;;;;;;;;;;;14.00;99.90;;;;;;5058030;28;20361;-73
2022/06/06 06:55:50;;;;;;;;;;;14.00;99.90;;;;;;5074639;28;19920;-73
2022/06/06 06:58:26;;;;;;;;;;;14.10;99.90;;;;;;5074746;28;19939;-73
2022/06/06 07:00:56;;;;;;;;;;;14.30;99.90;;;;;;5058109;28;19916;-72
2022/06/06 07:09:05;;;;;;;;;;;15.20;99.90;;;;;;5074868;28;20352;-73
2022/06/06 07:11:39;;;;;;;;;;;15.40;99.90;;;;;;5108909;28;20371;-74
2022/06/06 07:14:23;;;;;;;;;;;15.30;99.90;;;;;;5074527;28;20405;-73
2022/06/06 07:16:59;;;;;;;;;;;15.40;99.90;;;;;;5074844;28;19916;-74
2022/06/06 07:19:46;;;;;;;;;;;15.50;99.90;;;;;;5074514;28;19916;-74
2022/06/06 07:22:14;;;;;;;;;;;15.60;99.90;;;;;;5057426;28;19984;-74
2022/06/06 07:24:40;;;;;;;;;;;15.60;99.90;;;;;;5057578;28;19943;-73
2022/06/06 07:27:07;;;;;;;;;;;15.60;99.90;;;;;;5074175;28;19916;-73
2022/06/06 07:29:33;;;;;;;;;;;15.60;99.90;;;;;;5074295;28;19916;-74
2022/06/06 07:31:58;;;;;;;;;;;15.50;99.90;;;;;;5040893;28;19946;-74
2022/06/06 07:34:24;;;;;;;;;;;15.50;99.90;;;;;;5057429;28;19923;-74
2022/06/06 07:36:55;;;;;;;;;;;15.70;99.90;;;;;;5057258;28;20295;-73
2022/06/06 07:39:40;;;;;;;;;;;15.80;99.90;;;;;;5074014;28;19990;-73
2022/06/06 07:42:11;;;;;;;;;;;15.80;99.90;;;;;;5107732;28;21835;-73
2022/06/06 07:44:46;;;;;;;;;;;16.00;99.90;;;;;;5073884;28;19923;-72
2022/06/06 07:47:21;;;;;;;;;;;16.20;99.90;;;;;;5057107;28;19981;-73
2022/06/06 07:49:53;;;;;;;;;;;16.50;99.90;;;;;;5074116;28;20280;-73
2022/06/06 07:52:37;;;;;;;;;;;16.50;99.90;;;;;;5073974;28;19924;-73
2022/06/06 07:55:24;;;;;;;;;;;16.30;99.90;;;;;;5073617;28;19941;-73
2022/06/06 07:58:01;;;;;;;;;;;16.30;99.90;;;;;;5107435;28;19916;-73
2022/06/06 08:00:28;;;;;;;;;;;16.30;99.90;;;;;;5073310;28;19939;-73
2022/06/06 08:02:59;;;;;;;;;;;16.20;99.90;;;;;;5056837;28;19969;-73
2022/06/06 08:05:25;;;;;;;;;;;16.10;99.90;;;;;;5073367;28;19974;-73
2022/06/06 08:08:06;;;;;;;;;;;16.40;99.90;;;;;;5073784;28;20367;-73
2022/06/06 08:10:43;;;;;;;;;;;16.40;99.90;;;;;;5073870;28;20287;-74
2022/06/06 08:13:26;;;;;;;;;;;16.40;99.90;;;;;;5073855;28;19920;-74
2022/06/06 08:15:52;;;;;;;;;;;16.50;99.90;;;;;;5073163;28;20003;-73
2022/06/06 08:18:17;;;;;;;;;;;16.60;99.90;;;;;;5073217;28;20009;-72
2022/06/06 08:21:02;;;;;;;;;;;16.70;99.90;;;;;;5056355;28;20046;-71
2022/06/06 08:23:30;;;;;;;;;;;16.70;99.90;;;;;;5072883;28;20019;-72
2022/06/06 08:25:56;;;;;;;;;;;16.70;99.90;;;;;;5072745;28;19920;-72
2022/06/06 08:28:21;;;;;;;;;;;16.60;99.90;;;;;;5072885;28;19962;-72
2022/06/06 08:30:47;;;;;;;;;;;16.40;99.90;;;;;;5056238;28;20351;-73
2022/06/06 08:33:13;;;;;;;;;;;16.10;99.90;;;;;;5056538;28;20398;-73
2022/06/06 08:35:46;;;;;;;;;;;16.00;99.90;;;;;;5072897;28;19966;-73
2022/06/06 08:38:24;;;;;;;;;;;16.00;99.90;;;;;;5056494;28;19974;-73
2022/06/06 08:40:52;;;;;;;;;;;16.20;99.90;;;;;;5072827;28;20005;-73
2022/06/06 08:43:22;;;;;;;;;;;16.30;99.90;;;;;;5072571;28;19920;-74
2022/06/06 08:46:14;;;;;;;;;;;16.50;99.90;;;;;;5072570;28;20007;-73
2022/06/06 08:48:46;;;;;;;;;;;16.70;99.90;;;;;;5073007;28;19927;-73
2022/06/06 08:51:15;;;;;;;;;;;16.50;99.90;;;;;;5072567;28;19958;-73
2022/06/06 08:53:59;;;;;;;;;;;16.70;99.90;;;;;;5072633;28;19920;-74
2022/06/06 08:56:44;;;;;;;;;;;16.90;99.90;;;;;;5072664;28;20313;-74
2022/06/06 08:59:33;;;;;;;;;;;17.00;99.90;;;;;;5072369;28;19967;-74
2022/06/06 09:02:02;;;;;;;;;;;17.10;99.90;;;;;;5072456;28;19916;-73
2022/06/06 09:04:28;;;;;;;;;;;17.10;99.90;;;;;;5072606;28;19972;-73
2022/06/06 09:07:12;;;;;;;;;;;17.30;99.90;;;;;;5072495;28;20360;-73
2022/06/06 09:09:50;;;;;;;;;;;17.20;99.90;;;;;;5072248;28;19916;-73
2022/06/06 09:12:33;;;;;;;;;;;16.90;99.90;;;;;;5071659;28;19924;-74
2022/06/06 09:15:14;;;;;;;;;;;16.60;99.90;;;;;;5055838;28;20283;-73
2022/06/06 09:17:42;;;;;;;;;;;16.70;99.90;;;;;;5072314;28;20003;-73
2022/06/06 09:20:20;;;;;;;;;;;16.90;99.90;;;;;;5055778;28;20288;-73
2022/06/06 09:23:04;;;;;;;;;;;17.00;99.90;;;;;;5055273;28;20190;-73
2022/06/06 09:25:56;;;;;;;;;;;17.10;99.90;;;;;;5055066;28;19921;-75
2022/06/06 09:28:28;;;;;;;;;;;17.00;99.90;;;;;;5072225;28;19966;-74
2022/06/06 09:31:11;;;;;;;;;;;17.00;99.90;;;;;;5055757;28;19917;-75
2022/06/06 09:33:58;;;;;;;;;;;16.90;99.90;;;;;;5072368;28;19924;-75
2022/06/06 09:36:38;;;;;;;;;;;17.10;99.90;;;;;;5072405;28;19916;-74
2022/06/06 09:39:07;;;;;;;;;;;17.30;99.90;;;;;;5072218;28;20375;-73
2022/06/06 09:41:36;;;;;;;;;;;17.50;99.90;;;;;;5071906;28;19923;-75
2022/06/06 09:44:11;;;;;;;;;;;17.80;99.90;;;;;;5071864;28;19960;-75
2022/06/06 09:46:39;;;;;;;;;;;17.90;99.90;;;;;;5055517;28;19916;-75
2022/06/06 09:49:24;;;;;;;;;;;18.00;99.90;;;;;;5055509;28;19916;-74
2022/06/06 09:52:28;;;;;;;;;;;17.80;99.90;;;;;;5072202;28;19920;-75
2022/06/06 10:00:51;;;;;;;;;;;16.20;99.90;;;;;;5064151;28;19982;-74
2022/06/06 10:03:25;;;;;;;;;;;16.00;99.90;;;;;;5071717;28;19920;-75
2022/06/06 10:06:08;;;;;;;;;;;15.90;99.90;;;;;;5071789;28;19920;-75
2022/06/06 10:08:46;;;;;;;;;;;16.00;99.90;;;;;;5071788;28;19917;-75
2022/06/06 10:11:11;;;;;;;;;;;16.10;99.90;;;;;;5071835;28;19916;-75
2022/06/06 10:13:43;;;;;;;;;;;16.20;99.90;;;;;;5071829;28;20010;-77
2022/06/06 10:16:16;;;;;;;;;;;16.20;99.90;;;;;;5071931;28;20288;-75
2022/06/06 10:18:50;;;;;;;;;;;16.00;99.90;;;;;;5071827;28;20010;-75
2022/06/06 10:21:35;;;;;;;;;;;16.00;99.90;;;;;;5071522;28;20327;-73
2022/06/06 10:24:15;;;;;;;;;;;16.20;99.90;;;;;;5075320;28;19928;-72
2022/06/06 10:26:46;;;;;;;;;;;16.40;99.90;;;;;;5075733;28;19967;-73
2022/06/06 10:30:10;;;;;;;;;;;16.60;99.90;;;;;;5059045;28;20249;-73
2022/06/06 10:32:14;;;;;;;;;;;16.70;99.90;;;;;;5075544;28;20403;-73
2022/06/06 10:34:46;;;;;;;;;;;16.70;99.90;;;;;;5075257;28;20021;-74
2022/06/06 10:37:24;;;;;;;;;;;16.70;99.90;;;;;;5075597;28;20347;-74
2022/06/06 10:40:12;;;;;;;;;;;16.50;99.90;;;;;;5058703;28;19916;-74
2022/06/06 10:42:38;;;;;;;;;;;16.30;99.90;;;;;;5050585;28;19916;-74
2022/06/06 10:45:10;;;;;;;;;;;16.20;99.90;;;;;;5058815;28;19927;-74
2022/06/06 10:47:50;;;;;;;;;;;16.20;99.90;;;;;;5058832;28;19966;-76
2022/06/06 10:50:27;;;;;;;;;;;16.30;99.90;;;;;;5075241;28;19942;-76
2022/06/06 10:52:56;;;;;;;;;;;16.60;99.90;;;;;;5058204;28;19963;-79
2022/06/06 10:55:36;;;;;;;;;;;16.80;99.90;;;;;;5058137;28;19975;-75
2022/06/06 10:58:11;;;;;;;;;;;17.10;99.90;;;;;;5074885;28;19923;-78
2022/06/06 11:00:55;;;;;;;;;;;17.20;99.90;;;;;;5074757;28;19930;-78
2022/06/06 11:03:24;;;;;;;;;;;17.30;99.90;;;;;;5074569;28;19928;-77
2022/06/06 11:06:09;;;;;;;;;;;17.40;99.90;;;;;;5058177;28;19927;-79
2022/06/06 11:08:51;;;;;;;;;;;17.50;99.90;;;;;;5057940;28;19979;-80
2022/06/06 11:11:22;;;;;;;;;;;17.50;99.90;;;;;;5074710;28;19920;-80
2022/06/06 11:14:01;;;;;;;;;;;17.60;99.90;;;;;;5074927;28;19927;-82
2022/06/06 11:16:38;;;;;;;;;;;17.60;99.90;;;;;;5058251;28;19948;-81
2022/06/06 11:19:16;;;;;;;;;;;17.60;99.90;;;;;;5057823;28;19916;-82
2022/06/06 11:21:44;;;;;;;;;;;17.40;99.90;;;;;;5074334;28;19916;-76
2022/06/06 11:24:27;;;;;;;;;;;17.20;99.90;;;;;;5074200;28;19923;-78
2022/06/06 11:27:06;;;;;;;;;;;17.30;99.90;;;;;;5057542;28;19943;-82
2022/06/06 11:29:53;;;;;;;;;;;17.40;99.90;;;;;;5074165;28;19916;-74
2022/06/06 11:32:18;;;;;;;;;;;17.30;99.90;;;;;;5057599;28;19964;-75
2022/06/06 11:34:44;;;;;;;;;;;17.40;99.90;;;;;;5073459;28;20295;-76
2022/06/06 11:37:17;;;;;;;;;;;17.50;99.90;;;;;;5074093;28;19920;-74
2022/06/06 11:39:43;;;;;;;;;;;17.40;99.90;;;;;;5057216;28;19916;-73
2022/06/06 11:42:27;;;;;;;;;;;17.50;99.90;;;;;;5073763;28;19923;-76
2022/06/06 11:45:11;;;;;;;;;;;17.70;99.90;;;;;;5073708;28;19924;-73
2022/06/06 11:47:47;;;;;;;;;;;17.90;99.90;;;;;;5073894;28;20002;-74
2022/06/06 11:50:31;;;;;;;;;;;18.10;99.90;;;;;;5056860;28;19923;-73
2022/06/06 11:53:12;;;;;;;;;;;18.30;99.90;;;;;;5056760;28;19916;-73
2022/06/06 11:55:56;;;;;;;;;;;18.50;99.90;;;;;;5073556;28;19916;-73
2022/06/06 11:58:27;;;;;;;;;;;18.60;99.90;;;;;;5073483;28;19920;-75
2022/06/06 12:00:53;;;;;;;;;;;18.50;99.90;;;;;;5073523;28;19962;-73
2022/06/06 12:03:18;;;;;;;;;;;18.10;99.90;;;;;;5073543;28;20330;-74
2022/06/06 12:05:44;;;;;;;;;;;18.40;99.90;;;;;;5056820;28;20273;-74
2022/06/06 12:08:12;;;;;;;;;;;18.60;99.90;;;;;;5073465;28;20395;-75
2022/06/06 12:10:44;;;;;;;;;;;18.70;99.90;;;;;;5073756;28;20466;-75
2022/06/06 12:13:19;;;;;;;;;;;18.80;99.90;;;;;;5057128;28;19916;-76
2022/06/06 12:15:56;;;;;;;;;;;18.90;99.90;;;;;;5073704;28;19916;-75
2022/06/06 12:18:21;;;;;;;;;;;19.00;99.90;;;;;;5073586;28;19916;-75
2022/06/06 12:21:05;;;;;;;;;;;19.00;99.90;;;;;;5073496;28;19966;-74
2022/06/06 12:23:50;;;;;;;;;;;18.80;99.90;;;;;;5073135;28;20011;-73
2022/06/06 12:26:38;;;;;;;;;;;18.70;99.90;;;;;;5056494;28;20299;-73
2022/06/06 12:29:16;;;;;;;;;;;18.60;99.90;;;;;;5046421;28;19963;-74
2022/06/06 12:31:47;;;;;;;;;;;18.60;99.90;;;;;;5072873;28;19931;-73
2022/06/06 12:34:20;;;;;;;;;;;18.70;99.90;;;;;;5056279;28;19970;-73
2022/06/06 12:36:54;;;;;;;;;;;18.70;99.90;;;;;;5073164;28;19916;-74
2022/06/06 12:39:45;;;;;;;;;;;18.80;99.90;;;;;;5072753;28;19920;-73
2022/06/06 12:42:20;;;;;;;;;;;18.90;99.90;;;;;;5072660;28;19920;-73
2022/06/06 12:44:48;;;;;;;;;;;19.00;99.90;;;;;;5072431;28;20027;-74
2022/06/06 12:47:30;;;;;;;;;;;19.00;99.90;;;;;;5055352;28;20394;-74
2022/06/06 12:50:24;;;;;;;;;;;18.90;99.90;;;;;;5072522;28;19916;-74
2022/06/06 12:52:57;;;;;;;;;;;18.80;99.90;;;;;;5053882;28;19917;-74
2022/06/06 12:55:38;;;;;;;;;;;18.90;99.90;;;;;;5072876;28;19916;-73
2022/06/06 12:58:07;;;;;;;;;;;18.80;99.90;;;;;;5072582;28;19923;-72
2022/06/06 13:03:25;;;;;;;;;;;18.60;99.90;;;;;;5072405;28;19920;-74
2022/06/06 13:05:56;;;;;;;;;;;18.40;99.90;;;;;;5072356;28;19920;-73
2022/06/06 13:08:31;;;;;;;;;;;18.20;99.90;;;;;;5056061;28;19916;-73
2022/06/06 13:11:15;;;;;;;;;;;18.20;99.90;;;;;;5055679;28;19916;-74
2022/06/06 13:13:47;;;;;;;;;;;18.10;99.90;;;;;;5072444;28;19916;-74
2022/06/06 13:16:19;;;;;;;;;;;18.00;99.90;;;;;;5072456;28;19923;-74
2022/06/06 13:18:52;;;;;;;;;;;18.00;99.90;;;;;;5055474;28;19916;-74
2022/06/06 13:21:27;;;;;;;;;;;17.90;99.90;;;;;;5072254;28;19981;-74
2022/06/06 13:23:53;;;;;;;;;;;17.90;99.90;;;;;;5072061;28;19927;-77
2022/06/06 13:26:25;;;;;;;;;;;18.00;99.90;;;;;;5055377;28;19959;-75
2022/06/06 13:28:52;;;;;;;;;;;18.00;99.90;;;;;;5072814;28;19920;-75
2022/06/06 13:31:27;;;;;;;;;;;18.00;99.90;;;;;;5055575;28;19916;-75
2022/06/06 13:34:12;;;;;;;;;;;18.10;99.90;;;;;;5072464;28;19966;-75
2022/06/06 13:36:44;;;;;;;;;;;18.20;99.90;;;;;;5055364;28;20013;-74
2022/06/06 13:39:25;;;;;;;;;;;18.10;99.90;;;;;;5055155;28;19921;-73
2022/06/06 13:42:03;;;;;;;;;;;18.00;99.90;;;;;;5055244;28;19920;-74
2022/06/06 13:44:44;;;;;;;;;;;17.90;99.90;;;;;;5055304;28;19928;-74
2022/06/06 13:47:16;;;;;;;;;;;17.80;99.90;;;;;;5071936;28;19920;-75
2022/06/06 13:50:01;;;;;;;;;;;17.60;99.90;;;;;;5072040;28;19916;-75
2022/06/06 13:52:48;;;;;;;;;;;17.60;99.90;;;;;;5071967;28;19916;-75
2022/06/06 13:55:31;;;;;;;;;;;17.50;99.90;;;;;;5045555;28;19966;-76
2022/06/06 13:58:03;;;;;;;;;;;17.30;99.90;;;;;;5074989;28;19916;-76
2022/06/06 14:00:34;;;;;;;;;;;17.30;99.90;;;;;;5075918;28;19963;-77
2022/06/06 14:03:06;;;;;;;;;;;17.20;99.90;;;;;;5058920;28;19920;-77
2022/06/06 14:05:31;;;;;;;;;;;17.10;99.90;;;;;;5059120;28;19999;-76
2022/06/06 14:07:57;;;;;;;;;;;17.00;99.90;;;;;;5076250;28;19920;-77
2022/06/06 14:10:33;;;;;;;;;;;16.80;99.90;;;;;;5059837;28;19923;-77
2022/06/06 14:12:59;;;;;;;;;;;16.60;99.90;;;;;;5076119;28;19917;-75
2022/06/06 14:15:25;;;;;;;;;;;16.30;99.90;;;;;;5059369;28;20074;-76
2022/06/06 14:18:00;;;;;;;;;;;16.10;99.90;;;;;;5059310;28;19927;-75
2022/06/06 14:20:37;;;;;;;;;;;15.90;99.90;;;;;;5075679;28;20003;-73
2022/06/06 14:23:21;;;;;;;;;;;15.80;99.90;;;;;;5075474;28;20323;-75
2022/06/06 14:25:48;;;;;;;;;;;15.70;99.90;;;;;;5075254;28;19920;-74
2022/06/06 14:28:25;;;;;;;;;;;15.60;99.90;;;;;;5058800;28;19917;-74
2022/06/06 14:30:50;;;;;;;;;;;15.40;99.90;;;;;;5075310;28;19921;-74
2022/06/06 14:33:22;;;;;;;;;;;15.30;99.90;;;;;;5059148;28;19916;-73
2022/06/06 14:35:48;;;;;;;;;;;15.30;99.90;;;;;;5076084;28;19920;-73
2022/06/06 14:38:27;;;;;;;;;;;15.20;99.90;;;;;;5075624;28;19999;-72
2022/06/06 14:40:59;;;;;;;;;;;15.20;99.90;;;;;;5059040;28;19916;-73
2022/06/06 14:43:26;;;;;;;;;;;15.20;99.90;;;;;;5058634;28;20417;-73
2022/06/06 14:45:54;;;;;;;;;;;15.10;99.90;;;;;;5075215;28;19921;-74
2022/06/06 14:48:30;;;;;;;;;;;15.00;99.90;;;;;;5058712;28;19916;-73
2022/06/06 14:50:58;;;;;;;;;;;15.00;99.90;;;;;;5075216;28;19916;-74
2022/06/06 14:53:26;;;;;;;;;;;15.40;99.90;;;;;;5075013;28;19921;-74
2022/06/06 14:55:54;;;;;;;;;;;15.00;99.90;;;;;;5074984;28;19916;-74